createdAt,value
2022-12-27T00:00:00.463Z,3.20
2022-12-27T00:01:00.585Z,3.20
2022-12-27T00:02:00.940Z,3.20
2022-12-27T00:03:00.508Z,3.20
2022-12-27T00:04:00.746Z,3.20
2022-12-27T00:05:00.435Z,3.20
2022-12-27T00:06:04.911Z,3.20
2022-12-27T00:07:00.461Z,3.20
2022-12-27T00:08:00.508Z,3.20
2022-12-27T00:09:01.092Z,3.20
2022-12-27T00:10:00.457Z,3.20
2022-12-27T00:11:05.537Z,3.20
2022-12-27T00:12:00.464Z,3.20
2022-12-27T00:13:00.446Z,3.20
2022-12-27T00:14:01.753Z,3.20
2022-12-27T00:15:00.486Z,3.20
2022-12-27T00:16:04.307Z,3.20
2022-12-27T00:17:00.472Z,3.20
2022-12-27T00:18:00.541Z,3.20
2022-12-27T00:19:00.541Z,3.20
2022-12-27T00:20:04.082Z,3.20
2022-12-27T00:21:00.904Z,3.20
2022-12-27T00:22:00.457Z,3.20
2022-12-27T00:23:00.495Z,3.20
2022-12-27T00:24:00.497Z,3.20
2022-12-27T00:25:00.483Z,3.20
2022-12-27T00:26:01.289Z,3.20
2022-12-27T00:27:00.465Z,3.20
2022-12-27T00:28:00.488Z,3.80
2022-12-27T00:29:01.015Z,3.80
2022-12-27T00:30:00.491Z,3.80
2022-12-27T00:31:00.813Z,3.80
2022-12-27T00:32:00.590Z,3.80
2022-12-27T00:33:00.444Z,3.80
2022-12-27T00:34:01.721Z,3.80
2022-12-27T00:35:00.540Z,3.80
2022-12-27T00:36:02.001Z,3.80
2022-12-27T00:37:00.449Z,3.80
2022-12-27T00:38:00.444Z,3.80
2022-12-27T00:39:00.598Z,3.80
2022-12-27T00:40:00.477Z,3.80
2022-12-27T00:41:00.902Z,3.80
2022-12-27T00:42:00.494Z,3.80
2022-12-27T00:43:00.441Z,3.80
2022-12-27T00:44:00.467Z,3.80
2022-12-27T00:45:00.442Z,3.80
2022-12-27T00:46:00.955Z,3.80
2022-12-27T00:47:00.446Z,3.80
2022-12-27T00:48:00.590Z,3.80
2022-12-27T00:49:00.554Z,3.80
2022-12-27T00:50:00.515Z,3.80
2022-12-27T00:51:02.008Z,3.80
2022-12-27T00:52:00.698Z,3.80
2022-12-27T00:53:00.623Z,3.80
2022-12-27T00:54:00.439Z,3.80
2022-12-27T00:55:00.453Z,3.80
2022-12-27T00:56:04.488Z,3.80
2022-12-27T00:57:00.464Z,3.80
2022-12-27T00:58:00.593Z,2.80
2022-12-27T00:59:01.547Z,2.80
2022-12-27T01:00:03.478Z,2.80
2022-12-27T01:01:08.979Z,2.80
2022-12-27T01:02:00.701Z,2.80
2022-12-27T01:03:00.472Z,2.80
2022-12-27T01:04:00.680Z,2.80
2022-12-27T01:05:00.470Z,2.80
2022-12-27T01:06:05.089Z,2.80
2022-12-27T01:07:00.455Z,2.80
2022-12-27T01:08:00.461Z,2.80
2022-12-27T01:09:01.053Z,2.80
2022-12-27T01:10:00.471Z,2.80
2022-12-27T01:11:00.606Z,2.80
2022-12-27T01:12:00.467Z,2.80
2022-12-27T01:13:01.481Z,2.80
2022-12-27T01:14:01.591Z,2.80
2022-12-27T01:15:00.490Z,2.80
2022-12-27T01:16:00.522Z,2.80
2022-12-27T01:17:00.537Z,2.80
2022-12-27T01:18:00.465Z,2.80
2022-12-27T01:19:00.492Z,2.80
2022-12-27T01:20:01.047Z,2.80
2022-12-27T01:21:03.741Z,2.80
2022-12-27T01:22:00.589Z,2.80
2022-12-27T01:23:00.473Z,2.80
2022-12-27T01:24:00.516Z,2.80
2022-12-27T01:25:00.560Z,2.80
2022-12-27T01:26:01.096Z,2.80
2022-12-27T01:27:00.577Z,2.80
2022-12-27T01:28:00.461Z,3.00
2022-12-27T01:29:00.466Z,3.00
2022-12-27T01:30:00.527Z,3.00
2022-12-27T01:31:04.983Z,3.00
2022-12-27T01:32:00.467Z,3.00
2022-12-27T01:33:00.453Z,3.00
2022-12-27T01:34:01.121Z,3.00
2022-12-27T01:35:00.776Z,3.00
2022-12-27T01:36:10.360Z,3.00
2022-12-27T01:37:00.437Z,3.00
2022-12-27T01:38:00.461Z,3.00
2022-12-27T01:39:00.493Z,3.00
2022-12-27T01:40:00.444Z,3.00
2022-12-27T01:41:00.461Z,3.00
2022-12-27T01:42:00.719Z,3.00
2022-12-27T01:43:00.450Z,3.00
2022-12-27T01:44:00.507Z,3.00
2022-12-27T01:45:01.133Z,3.00
2022-12-27T01:46:00.493Z,3.00
2022-12-27T01:47:02.161Z,3.00
2022-12-27T01:48:04.455Z,3.00
2022-12-27T01:49:03.232Z,3.00
2022-12-27T01:50:10.379Z,3.00
2022-12-27T01:51:03.165Z,3.00
2022-12-27T01:52:00.491Z,3.00
2022-12-27T01:53:03.159Z,3.00
2022-12-27T01:54:00.556Z,3.00
2022-12-27T01:55:05.882Z,3.00
2022-12-27T01:56:00.434Z,3.00
2022-12-27T01:57:00.676Z,3.00
2022-12-27T01:58:10.378Z,2.30
2022-12-27T01:59:04.391Z,2.30
2022-12-27T02:00:00.727Z,2.30
2022-12-27T02:01:01.394Z,2.30
2022-12-27T02:02:00.683Z,2.30
2022-12-27T02:03:02.525Z,2.30
2022-12-27T02:04:03.007Z,2.30
2022-12-27T02:05:00.815Z,2.30
2022-12-27T02:06:01.800Z,2.30
2022-12-27T02:07:00.715Z,2.30
2022-12-27T02:08:03.720Z,2.30
2022-12-27T02:09:07.992Z,2.30
2022-12-27T02:10:01.359Z,2.30
2022-12-27T02:11:01.121Z,2.30
2022-12-27T02:12:01.742Z,2.30
2022-12-27T02:13:01.994Z,2.30
2022-12-27T02:14:00.923Z,2.30
2022-12-27T02:15:00.465Z,2.30
2022-12-27T02:16:00.488Z,2.30
2022-12-27T02:17:03.121Z,2.30
2022-12-27T02:18:00.759Z,2.30
2022-12-27T02:19:00.456Z,2.30
2022-12-27T02:20:05.409Z,2.30
2022-12-27T02:21:03.721Z,2.30
2022-12-27T02:22:10.367Z,2.30
2022-12-27T02:23:00.441Z,2.30
2022-12-27T02:24:05.129Z,2.30
2022-12-27T02:25:10.356Z,2.30
2022-12-27T02:26:03.728Z,2.30
2022-12-27T02:27:05.247Z,2.30
2022-12-27T02:28:10.360Z,2.70
2022-12-27T02:29:06.044Z,2.70
2022-12-27T02:30:04.706Z,2.70
2022-12-27T02:31:10.404Z,2.70
2022-12-27T02:32:10.381Z,2.70
2022-12-27T02:33:01.449Z,2.70
2022-12-27T02:34:02.709Z,2.70
2022-12-27T02:35:03.722Z,2.70
2022-12-27T02:36:03.689Z,2.70
2022-12-27T02:37:03.537Z,2.70
2022-12-27T02:38:02.868Z,2.70
2022-12-27T02:39:01.707Z,2.70
2022-12-27T02:40:02.878Z,2.70
2022-12-27T02:41:01.908Z,2.70
2022-12-27T02:42:00.773Z,2.70
2022-12-27T02:43:01.076Z,2.70
2022-12-27T02:44:00.491Z,2.70
2022-12-27T02:45:01.149Z,2.70
2022-12-27T02:46:10.075Z,2.70
2022-12-27T02:47:01.060Z,2.70
2022-12-27T02:48:00.482Z,2.70
2022-12-27T02:49:00.537Z,2.70
2022-12-27T02:50:00.466Z,2.70
2022-12-27T02:51:10.378Z,2.70
2022-12-27T02:52:10.377Z,2.70
2022-12-27T02:53:05.870Z,2.70
2022-12-27T02:54:07.450Z,2.70
2022-12-27T02:55:00.437Z,2.70
2022-12-27T02:56:10.391Z,2.70
2022-12-27T02:57:10.392Z,2.70
2022-12-27T02:58:00.482Z,2.00
2022-12-27T02:59:10.414Z,2.00
2022-12-27T03:00:05.477Z,2.00
2022-12-27T03:01:10.412Z,2.00
2022-12-27T03:02:07.436Z,2.00
2022-12-27T03:03:10.408Z,2.00
2022-12-27T03:04:00.444Z,2.00
2022-12-27T03:05:01.490Z,2.00
2022-12-27T03:06:03.720Z,2.00
2022-12-27T03:07:10.377Z,2.00
2022-12-27T03:08:03.668Z,2.00
2022-12-27T03:09:08.631Z,2.00
2022-12-27T03:10:00.488Z,2.00
2022-12-27T03:11:01.479Z,2.00
2022-12-27T03:12:04.116Z,2.00
2022-12-27T03:13:10.492Z,2.00
2022-12-27T03:14:06.170Z,2.00
2022-12-27T03:15:04.010Z,2.00
2022-12-27T03:16:07.925Z,2.00
2022-12-27T03:17:04.723Z,2.00
2022-12-27T03:18:08.613Z,2.00
2022-12-27T03:19:06.568Z,2.00
2022-12-27T03:20:03.864Z,2.00
2022-12-27T03:21:02.087Z,2.00
2022-12-27T03:22:01.065Z,2.00
2022-12-27T03:23:01.646Z,2.00
2022-12-27T03:24:00.559Z,2.00
2022-12-27T03:25:01.453Z,2.00
2022-12-27T03:26:02.898Z,2.00
2022-12-27T03:27:03.074Z,2.00
2022-12-27T03:28:03.760Z,2.30
2022-12-27T03:29:01.764Z,2.30
2022-12-27T03:30:03.385Z,2.30
2022-12-27T03:31:10.417Z,2.30
2022-12-27T03:32:03.189Z,2.30
2022-12-27T03:33:02.605Z,2.30
2022-12-27T03:34:03.753Z,2.30
2022-12-27T03:35:10.371Z,2.30
2022-12-27T03:36:05.672Z,2.30
2022-12-27T03:37:03.658Z,2.30
2022-12-27T03:38:02.389Z,2.30
2022-12-27T03:39:10.421Z,2.30
2022-12-27T03:40:10.367Z,2.30
2022-12-27T03:41:02.673Z,2.30
2022-12-27T03:42:02.431Z,2.30
2022-12-27T03:43:04.281Z,2.30
2022-12-27T03:44:00.783Z,2.30
2022-12-27T03:45:00.689Z,2.30
2022-12-27T03:46:07.333Z,2.30
2022-12-27T03:47:04.838Z,2.30
2022-12-27T03:48:04.217Z,2.30
2022-12-27T03:49:10.365Z,2.30
2022-12-27T03:50:10.377Z,2.30
2022-12-27T03:51:01.985Z,2.30
2022-12-27T03:52:10.370Z,2.30
2022-12-27T03:53:05.314Z,2.30
2022-12-27T03:54:05.538Z,2.30
2022-12-27T03:55:00.813Z,2.30
2022-12-27T03:56:00.714Z,2.30
2022-12-27T03:57:01.929Z,2.30
2022-12-27T03:58:00.519Z,2.30
2022-12-27T03:59:01.530Z,2.30
2022-12-27T04:00:02.154Z,2.30
2022-12-27T04:01:00.555Z,2.30
2022-12-27T04:02:00.797Z,2.30
2022-12-27T04:03:00.582Z,2.30
2022-12-27T04:04:00.453Z,2.30
2022-12-27T04:05:00.472Z,2.30
2022-12-27T04:06:00.481Z,2.30
2022-12-27T04:07:00.467Z,2.30
2022-12-27T04:08:00.460Z,2.30
2022-12-27T04:09:00.459Z,2.30
2022-12-27T04:10:04.540Z,2.30
2022-12-27T04:11:00.709Z,2.30
2022-12-27T04:12:00.516Z,2.30
2022-12-27T04:13:00.440Z,2.30
2022-12-27T04:14:00.461Z,2.30
2022-12-27T04:15:05.545Z,2.30
2022-12-27T04:16:00.566Z,2.30
2022-12-27T04:17:00.497Z,2.30
2022-12-27T04:18:00.455Z,2.30
2022-12-27T04:19:00.448Z,2.30
2022-12-27T04:20:00.468Z,2.30
2022-12-27T04:21:00.465Z,2.30
2022-12-27T04:22:00.458Z,2.30
2022-12-27T04:23:00.458Z,2.30
2022-12-27T04:24:00.484Z,2.30
2022-12-27T04:25:00.444Z,2.30
2022-12-27T04:26:00.462Z,2.30
2022-12-27T04:27:00.466Z,2.30
2022-12-27T04:28:00.443Z,2.90
2022-12-27T04:29:00.460Z,2.90
2022-12-27T04:30:00.495Z,2.90
2022-12-27T04:31:00.511Z,2.90
2022-12-27T04:32:00.446Z,2.90
2022-12-27T04:33:00.509Z,2.90
2022-12-27T04:34:00.532Z,2.90
2022-12-27T04:35:00.468Z,2.90
2022-12-27T04:36:06.023Z,2.90
2022-12-27T04:37:00.486Z,2.90
2022-12-27T04:38:00.448Z,2.90
2022-12-27T04:39:00.533Z,2.90
2022-12-27T04:40:00.455Z,2.90
2022-12-27T04:41:00.500Z,2.90
2022-12-27T04:42:00.448Z,2.90
2022-12-27T04:43:00.483Z,2.90
2022-12-27T04:44:00.478Z,2.90
2022-12-27T04:45:00.452Z,2.90
2022-12-27T04:46:00.537Z,2.90
2022-12-27T04:47:00.735Z,2.90
2022-12-27T04:48:00.714Z,2.90
2022-12-27T04:49:00.492Z,2.90
2022-12-27T04:50:01.061Z,2.90
2022-12-27T04:51:00.616Z,2.90
2022-12-27T04:52:00.453Z,2.90
2022-12-27T04:53:00.749Z,2.90
2022-12-27T04:54:00.450Z,2.90
2022-12-27T04:55:09.414Z,2.90
2022-12-27T04:56:01.021Z,2.90
2022-12-27T04:57:00.465Z,2.90
2022-12-27T04:58:00.471Z,2.40
2022-12-27T04:59:00.469Z,2.40
2022-12-27T05:00:00.456Z,2.40
2022-12-27T05:01:01.623Z,2.40
2022-12-27T05:02:00.602Z,2.40
2022-12-27T05:03:03.364Z,2.40
2022-12-27T05:04:00.532Z,2.40
2022-12-27T05:05:00.648Z,2.40
2022-12-27T05:06:00.924Z,2.40
2022-12-27T05:07:00.592Z,2.40
2022-12-27T05:08:01.259Z,2.40
2022-12-27T05:09:00.497Z,2.40
2022-12-27T05:10:02.140Z,2.40
2022-12-27T05:11:00.478Z,2.40
2022-12-27T05:12:00.479Z,2.40
2022-12-27T05:13:00.443Z,2.40
2022-12-27T05:14:00.807Z,2.40
2022-12-27T05:15:00.450Z,2.40
2022-12-27T05:16:00.576Z,2.40
2022-12-27T05:17:00.499Z,2.40
2022-12-27T05:18:00.517Z,2.40
2022-12-27T05:19:00.549Z,2.40
2022-12-27T05:20:03.122Z,2.40
2022-12-27T05:21:01.535Z,2.40
2022-12-27T05:22:00.448Z,2.40
2022-12-27T05:23:00.518Z,2.40
2022-12-27T05:24:05.369Z,2.40
2022-12-27T05:25:00.458Z,2.40
2022-12-27T05:26:00.475Z,2.40
2022-12-27T05:27:00.461Z,2.40
2022-12-27T05:28:01.100Z,2.70
2022-12-27T05:29:00.535Z,2.70
2022-12-27T05:30:00.443Z,2.70
2022-12-27T05:31:00.978Z,2.70
2022-12-27T05:32:00.440Z,2.70
2022-12-27T05:33:00.811Z,2.70
2022-12-27T05:34:00.464Z,2.70
2022-12-27T05:35:00.485Z,2.70
2022-12-27T05:36:00.453Z,2.70
2022-12-27T05:37:00.437Z,2.70
2022-12-27T05:38:00.549Z,2.70
2022-12-27T05:39:00.506Z,2.70
2022-12-27T05:40:00.443Z,2.70
2022-12-27T05:41:01.367Z,2.70
2022-12-27T05:42:00.591Z,2.70
2022-12-27T05:43:01.193Z,2.70
2022-12-27T05:44:06.503Z,2.70
2022-12-27T05:45:00.442Z,2.70
2022-12-27T05:46:02.302Z,2.70
2022-12-27T05:47:00.485Z,2.70
2022-12-27T05:48:00.460Z,2.70
2022-12-27T05:49:00.456Z,2.70
2022-12-27T05:50:00.444Z,2.70
2022-12-27T05:51:09.633Z,2.70
2022-12-27T05:52:00.436Z,2.70
2022-12-27T05:53:00.498Z,2.70
2022-12-27T05:54:00.462Z,2.70
2022-12-27T05:55:00.484Z,2.70
2022-12-27T05:56:00.691Z,2.70
2022-12-27T05:57:00.468Z,2.70
2022-12-27T05:58:00.446Z,2.50
2022-12-27T05:59:00.450Z,2.50
2022-12-27T06:00:00.682Z,2.50
2022-12-27T06:01:00.837Z,2.50
2022-12-27T06:02:00.740Z,2.50
2022-12-27T06:03:01.304Z,2.50
2022-12-27T06:04:00.529Z,2.50
2022-12-27T06:05:00.439Z,2.50
2022-12-27T06:06:01.305Z,2.50
2022-12-27T06:07:00.446Z,2.50
2022-12-27T06:08:00.471Z,2.50
2022-12-27T06:09:00.450Z,2.50
2022-12-27T06:10:00.446Z,2.50
2022-12-27T06:11:02.589Z,2.50
2022-12-27T06:12:00.446Z,2.50
2022-12-27T06:13:01.005Z,2.50
2022-12-27T06:14:00.465Z,2.50
2022-12-27T06:15:00.711Z,2.50
2022-12-27T06:16:01.662Z,2.50
2022-12-27T06:17:00.458Z,2.50
2022-12-27T06:18:01.152Z,2.50
2022-12-27T06:19:00.454Z,2.50
2022-12-27T06:20:00.478Z,2.50
2022-12-27T06:21:01.236Z,2.50
2022-12-27T06:22:00.581Z,2.50
2022-12-27T06:23:00.781Z,2.50
2022-12-27T06:24:00.450Z,2.50
2022-12-27T06:25:00.477Z,2.50
2022-12-27T06:26:04.393Z,2.50
2022-12-27T06:27:00.454Z,2.50
2022-12-27T06:28:00.492Z,2.20
2022-12-27T06:29:00.451Z,2.20
2022-12-27T06:30:00.512Z,2.20
2022-12-27T06:31:00.553Z,2.20
2022-12-27T06:32:00.549Z,2.20
2022-12-27T06:33:00.432Z,2.20
2022-12-27T06:34:00.503Z,2.20
2022-12-27T06:35:00.448Z,2.20
2022-12-27T06:36:09.132Z,2.20
2022-12-27T06:37:00.475Z,2.20
2022-12-27T06:38:00.484Z,2.20
2022-12-27T06:39:00.862Z,2.20
2022-12-27T06:40:00.451Z,2.20
2022-12-27T06:41:02.095Z,2.20
2022-12-27T06:42:00.458Z,2.20
2022-12-27T06:43:00.481Z,2.20
2022-12-27T06:44:00.458Z,2.20
2022-12-27T06:45:00.480Z,2.20
2022-12-27T06:46:03.337Z,2.20
2022-12-27T06:47:00.629Z,2.20
2022-12-27T06:48:00.588Z,2.20
2022-12-27T06:49:00.519Z,2.20
2022-12-27T06:50:00.457Z,2.20
2022-12-27T06:51:03.039Z,2.20
2022-12-27T06:52:00.442Z,2.20
2022-12-27T06:53:00.455Z,2.20
2022-12-27T06:54:00.522Z,2.20
2022-12-27T06:55:00.448Z,2.20
2022-12-27T06:56:09.958Z,2.20
2022-12-27T06:57:00.437Z,2.20
2022-12-27T06:58:00.454Z,2.30
2022-12-27T06:59:00.476Z,2.30
2022-12-27T07:00:00.708Z,2.30
2022-12-27T07:01:10.431Z,2.30
2022-12-27T07:02:00.723Z,2.30
2022-12-27T07:03:02.269Z,2.30
2022-12-27T07:04:00.665Z,2.30
2022-12-27T07:05:00.486Z,2.30
2022-12-27T07:06:02.315Z,2.30
2022-12-27T07:07:00.499Z,2.30
2022-12-27T07:08:00.456Z,2.30
2022-12-27T07:09:00.493Z,2.30
2022-12-27T07:10:00.511Z,2.30
2022-12-27T07:11:02.156Z,2.30
2022-12-27T07:14:00.984Z,2.30
2022-12-27T07:15:00.476Z,2.30
2022-12-27T07:16:02.436Z,2.30
2022-12-27T07:17:00.512Z,2.30
2022-12-27T07:18:00.486Z,2.30
2022-12-27T07:19:00.462Z,2.30
2022-12-27T07:20:00.870Z,2.30
2022-12-27T07:21:10.365Z,2.30
2022-12-27T07:22:00.460Z,2.30
2022-12-27T07:23:00.445Z,2.30
2022-12-27T07:24:00.505Z,2.30
2022-12-27T07:25:00.446Z,2.30
2022-12-27T07:26:01.723Z,2.30
2022-12-27T07:27:00.543Z,2.30
2022-12-27T07:28:00.499Z,1.70
2022-12-27T07:29:00.906Z,1.70
2022-12-27T07:30:00.643Z,1.70
2022-12-27T07:31:05.085Z,1.70
2022-12-27T07:32:00.533Z,1.70
2022-12-27T07:33:00.445Z,1.70
2022-12-27T07:34:01.439Z,1.70
2022-12-27T07:35:00.490Z,1.70
2022-12-27T07:36:00.911Z,1.70
2022-12-27T07:37:00.472Z,1.70
2022-12-27T07:38:00.462Z,1.70
2022-12-27T07:39:00.681Z,1.70
2022-12-27T07:40:00.461Z,1.70
2022-12-27T07:41:01.212Z,1.70
2022-12-27T07:42:06.288Z,1.70
2022-12-27T07:43:00.484Z,1.70
2022-12-27T07:44:00.480Z,1.70
2022-12-27T07:45:00.561Z,1.70
2022-12-27T07:46:04.661Z,1.70
2022-12-27T07:47:00.444Z,1.70
2022-12-27T07:48:00.447Z,1.70
2022-12-27T07:49:00.511Z,1.70
2022-12-27T07:50:00.472Z,1.70
2022-12-27T07:51:00.696Z,1.70
2022-12-27T07:52:00.453Z,1.70
2022-12-27T07:53:00.453Z,1.70
2022-12-27T07:54:00.437Z,1.70
2022-12-27T07:55:00.512Z,1.70
2022-12-27T07:56:09.253Z,1.70
2022-12-27T07:57:00.456Z,1.70
2022-12-27T07:58:00.449Z,1.70
2022-12-27T07:59:00.758Z,1.70
2022-12-27T08:00:00.510Z,1.70
2022-12-27T08:01:01.805Z,1.70
2022-12-27T08:02:00.538Z,1.70
2022-12-27T08:03:00.487Z,1.70
2022-12-27T08:04:00.441Z,1.70
2022-12-27T08:05:00.467Z,1.70
2022-12-27T08:06:00.630Z,1.70
2022-12-27T08:07:10.372Z,1.70
2022-12-27T08:08:00.554Z,1.70
2022-12-27T08:09:03.551Z,1.70
2022-12-27T08:10:00.454Z,1.70
2022-12-27T08:11:05.359Z,1.70
2022-12-27T08:12:00.475Z,1.70
2022-12-27T08:13:00.477Z,1.70
2022-12-27T08:14:00.475Z,1.70
2022-12-27T08:15:00.454Z,1.70
2022-12-27T08:16:00.950Z,1.70
2022-12-27T08:17:03.340Z,1.70
2022-12-27T08:18:00.557Z,1.70
2022-12-27T08:19:04.882Z,1.70
2022-12-27T08:20:00.481Z,1.70
2022-12-27T08:21:00.456Z,1.70
2022-12-27T08:22:00.432Z,1.70
2022-12-27T08:23:00.487Z,1.70
2022-12-27T08:24:00.513Z,1.70
2022-12-27T08:25:00.596Z,1.70
2022-12-27T08:26:00.478Z,1.70
2022-12-27T08:27:00.487Z,1.70
2022-12-27T08:28:09.931Z,1.90
2022-12-27T08:29:00.459Z,1.90
2022-12-27T08:30:00.499Z,1.90
2022-12-27T08:31:00.536Z,1.90
2022-12-27T08:32:00.570Z,1.90
2022-12-27T08:33:01.328Z,1.90
2022-12-27T08:34:00.447Z,1.90
2022-12-27T08:35:18.351Z,1.90
2022-12-27T08:36:15.733Z,1.90
2022-12-27T08:37:00.446Z,1.90
2022-12-27T08:38:00.671Z,1.90
2022-12-27T08:39:00.456Z,1.90
2022-12-27T08:40:02.869Z,1.90
2022-12-27T08:41:00.532Z,1.90
2022-12-27T08:42:00.494Z,1.90
2022-12-27T08:43:00.521Z,1.90
2022-12-27T08:44:00.444Z,1.90
2022-12-27T08:45:00.459Z,1.90
2022-12-27T08:46:01.360Z,1.90
2022-12-27T08:47:00.471Z,1.90
2022-12-27T08:48:01.004Z,1.90
2022-12-27T08:49:00.516Z,1.90
2022-12-27T08:50:00.480Z,1.90
2022-12-27T08:51:08.964Z,1.90
2022-12-27T08:52:00.487Z,1.90
2022-12-27T08:53:01.529Z,1.90
2022-12-27T08:54:00.586Z,1.90
2022-12-27T08:55:01.067Z,1.90
2022-12-27T08:56:00.551Z,1.90
2022-12-27T08:57:00.486Z,1.90
2022-12-27T08:58:02.252Z,1.80
2022-12-27T08:59:00.680Z,1.80
2022-12-27T09:00:00.490Z,1.80
2022-12-27T09:01:04.406Z,1.80
2022-12-27T09:02:00.805Z,1.80
2022-12-27T09:03:00.469Z,1.80
2022-12-27T09:04:00.534Z,1.80
2022-12-27T09:05:00.445Z,1.80
2022-12-27T09:06:10.383Z,1.80
2022-12-27T09:07:01.211Z,1.80
2022-12-27T09:08:00.495Z,1.80
2022-12-27T09:09:00.470Z,1.80
2022-12-27T09:10:00.522Z,1.80
2022-12-27T09:11:08.965Z,1.80
2022-12-27T09:12:03.126Z,1.80
2022-12-27T09:13:00.447Z,1.80
2022-12-27T09:14:01.559Z,1.80
2022-12-27T09:15:00.466Z,1.80
2022-12-27T09:16:04.277Z,1.80
2022-12-27T09:17:00.483Z,1.80
2022-12-27T09:18:00.470Z,1.80
2022-12-27T09:19:00.803Z,1.80
2022-12-27T09:20:00.515Z,1.80
2022-12-27T09:21:02.829Z,1.80
2022-12-27T09:22:00.495Z,1.80
2022-12-27T09:23:00.476Z,1.80
2022-12-27T09:24:00.472Z,1.80
2022-12-27T09:25:00.539Z,1.80
2022-12-27T09:26:05.039Z,1.80
2022-12-27T09:27:00.461Z,1.80
2022-12-27T09:28:00.457Z,1.70
2022-12-27T09:29:00.456Z,1.70
2022-12-27T09:30:00.632Z,1.70
2022-12-27T09:31:00.979Z,1.70
2022-12-27T09:32:00.477Z,1.70
2022-12-27T09:33:00.473Z,1.70
2022-12-27T09:34:00.464Z,1.70
2022-12-27T09:35:01.227Z,1.70
2022-12-27T09:36:02.737Z,1.70
2022-12-27T09:37:00.455Z,1.70
2022-12-27T09:38:00.467Z,1.70
2022-12-27T09:39:00.492Z,1.70
2022-12-27T09:40:00.507Z,1.70
2022-12-27T09:41:02.918Z,1.70
2022-12-27T09:43:19.563Z,1.70
2022-12-27T09:44:01.463Z,1.70
2022-12-27T09:45:10.374Z,1.70
2022-12-27T09:46:01.580Z,1.70
2022-12-27T09:47:01.563Z,1.70
2022-12-27T09:48:02.353Z,1.70
2022-12-27T09:49:00.717Z,1.70
2022-12-27T09:50:10.366Z,1.70
2022-12-27T09:51:04.289Z,1.70
2022-12-27T09:52:03.496Z,1.70
2022-12-27T09:53:06.113Z,1.70
2022-12-27T09:54:03.435Z,1.70
2022-12-27T09:55:04.694Z,1.70
2022-12-27T09:56:00.533Z,1.70
2022-12-27T09:57:19.281Z,1.70
2022-12-27T09:58:08.715Z,2.40
2022-12-27T09:59:08.663Z,2.40
2022-12-27T10:00:00.948Z,2.40
2022-12-27T10:01:01.353Z,2.40
2022-12-27T10:02:00.611Z,2.40
2022-12-27T10:03:03.504Z,2.40
2022-12-27T10:04:00.690Z,2.40
2022-12-27T10:05:21.619Z,2.40
2022-12-27T10:06:10.441Z,2.40
2022-12-27T10:07:04.965Z,2.40
2022-12-27T10:08:10.267Z,2.40
2022-12-27T10:09:10.374Z,2.40
2022-12-27T10:10:10.366Z,2.40
2022-12-27T10:11:00.437Z,2.40
2022-12-27T10:12:10.380Z,2.40
2022-12-27T10:13:04.704Z,2.40
2022-12-27T10:14:10.373Z,2.40
2022-12-27T10:15:01.491Z,2.40
2022-12-27T10:16:10.453Z,2.40
2022-12-27T10:17:10.374Z,2.40
2022-12-27T10:18:00.461Z,2.40
2022-12-27T10:19:10.383Z,2.40
2022-12-27T10:20:00.435Z,2.40
2022-12-27T10:21:01.459Z,2.40
2022-12-27T10:22:10.397Z,2.40
2022-12-27T10:23:06.400Z,2.40
2022-12-27T10:24:10.361Z,2.40
2022-12-27T10:25:03.850Z,2.40
2022-12-27T10:26:03.724Z,2.40
2022-12-27T10:27:01.223Z,2.40
2022-12-27T10:28:09.714Z,2.30
2022-12-27T10:29:02.672Z,2.30
2022-12-27T10:30:00.972Z,2.30
2022-12-27T10:31:01.804Z,2.30
2022-12-27T10:32:00.498Z,2.30
2022-12-27T10:33:00.591Z,2.30
2022-12-27T10:34:00.453Z,2.30
2022-12-27T10:35:01.537Z,2.30
2022-12-27T10:36:05.513Z,2.30
2022-12-27T10:37:00.456Z,2.30
2022-12-27T10:38:00.589Z,2.30
2022-12-27T10:39:02.322Z,2.30
2022-12-27T10:40:07.674Z,2.30
2022-12-27T10:41:10.361Z,2.30
2022-12-27T10:42:10.377Z,2.30
2022-12-27T10:43:04.842Z,2.30
2022-12-27T10:44:00.493Z,2.30
2022-12-27T10:45:10.380Z,2.30
2022-12-27T10:46:10.401Z,2.30
2022-12-27T10:47:00.812Z,2.30
2022-12-27T10:48:10.360Z,2.30
2022-12-27T10:49:21.297Z,2.30
2022-12-27T10:50:02.743Z,2.30
2022-12-27T10:51:05.126Z,2.30
2022-12-27T10:52:10.395Z,2.30
2022-12-27T10:53:00.505Z,2.30
2022-12-27T10:54:02.922Z,2.30
2022-12-27T10:55:00.486Z,2.30
2022-12-27T10:56:10.381Z,2.30
2022-12-27T10:57:10.374Z,2.30
2022-12-27T10:58:10.375Z,2.20
2022-12-27T10:59:06.534Z,2.20
2022-12-27T11:00:10.372Z,2.20
2022-12-27T11:01:00.578Z,2.20
2022-12-27T11:02:00.777Z,2.20
2022-12-27T11:03:00.519Z,2.20
2022-12-27T11:04:15.986Z,2.20
2022-12-27T11:05:00.460Z,2.20
2022-12-27T11:06:02.494Z,2.20
2022-12-27T11:07:00.468Z,2.20
2022-12-27T11:08:10.389Z,2.20
2022-12-27T11:09:10.383Z,2.20
2022-12-27T11:10:05.217Z,2.20
2022-12-27T11:11:10.375Z,2.20
2022-12-27T11:12:10.373Z,2.20
2022-12-27T11:13:01.926Z,2.20
2022-12-27T11:14:09.787Z,2.20
2022-12-27T11:15:01.503Z,2.20
2022-12-27T11:16:00.533Z,2.20
2022-12-27T11:17:00.486Z,2.20
2022-12-27T11:18:03.097Z,2.20
2022-12-27T11:19:01.206Z,2.20
2022-12-27T11:20:02.063Z,2.20
2022-12-27T11:21:00.747Z,2.20
2022-12-27T11:22:03.856Z,2.20
2022-12-27T11:23:01.345Z,2.20
2022-12-27T11:24:01.512Z,2.20
2022-12-27T11:25:00.478Z,2.20
2022-12-27T11:26:03.239Z,2.20
2022-12-27T11:27:00.739Z,2.20
2022-12-27T11:28:02.959Z,1.70
2022-12-27T11:29:01.271Z,1.70
2022-12-27T11:30:00.618Z,1.70
2022-12-27T11:31:04.134Z,1.70
2022-12-27T11:32:05.081Z,1.70
2022-12-27T11:33:03.103Z,1.70
2022-12-27T11:34:05.352Z,1.70
2022-12-27T11:35:00.588Z,1.70
2022-12-27T11:36:00.676Z,1.70
2022-12-27T11:37:04.295Z,1.70
2022-12-27T11:38:00.533Z,1.70
2022-12-27T11:39:00.773Z,1.70
2022-12-27T11:40:10.389Z,1.70
2022-12-27T11:41:04.544Z,1.70
2022-12-27T11:42:01.964Z,1.70
2022-12-27T11:43:04.866Z,1.70
2022-12-27T11:44:10.081Z,1.70
2022-12-27T11:45:10.380Z,1.70
2022-12-27T11:46:02.742Z,1.70
2022-12-27T11:47:02.828Z,1.70
2022-12-27T11:48:04.822Z,1.70
2022-12-27T11:49:03.699Z,1.70
2022-12-27T11:50:10.376Z,1.70
2022-12-27T11:51:00.438Z,1.70
2022-12-27T11:52:09.758Z,1.70
2022-12-27T11:53:10.369Z,1.70
2022-12-27T11:54:10.394Z,1.70
2022-12-27T11:55:10.368Z,1.70
2022-12-27T11:56:10.361Z,1.70
2022-12-27T11:57:00.449Z,1.70
2022-12-27T11:58:10.381Z,3.50
2022-12-27T11:59:10.365Z,3.50
2022-12-27T12:00:07.773Z,3.50
2022-12-27T12:01:10.369Z,3.50
2022-12-27T12:02:00.505Z,3.50
2022-12-27T12:03:10.425Z,3.50
2022-12-27T12:04:09.241Z,3.50
2022-12-27T12:05:00.448Z,3.50
2022-12-27T12:06:10.377Z,3.50
2022-12-27T12:07:01.480Z,3.50
2022-12-27T12:08:09.945Z,3.50
2022-12-27T12:09:10.365Z,3.50
2022-12-27T12:10:07.825Z,3.50
2022-12-27T12:11:10.373Z,3.50
2022-12-27T12:12:10.376Z,3.50
2022-12-27T12:13:10.377Z,3.50
2022-12-27T12:14:10.388Z,3.50
2022-12-27T12:15:10.362Z,3.50
2022-12-27T12:16:01.472Z,3.50
2022-12-27T12:17:01.461Z,3.50
2022-12-27T12:18:01.485Z,3.50
2022-12-27T12:19:03.730Z,3.50
2022-12-27T12:20:10.361Z,3.50
2022-12-27T12:21:00.432Z,3.50
2022-12-27T12:22:10.429Z,3.50
2022-12-27T12:23:01.460Z,3.50
2022-12-27T12:24:10.422Z,3.50
2022-12-27T12:25:10.423Z,3.50
2022-12-27T12:26:07.828Z,3.50
2022-12-27T12:27:00.433Z,3.50
2022-12-27T12:28:30.326Z,2.80
2022-12-27T12:29:09.716Z,2.80
2022-12-27T12:30:00.458Z,2.80
2022-12-27T12:31:00.444Z,2.80
2022-12-27T12:32:10.466Z,2.80
2022-12-27T12:33:10.425Z,2.80
2022-12-27T12:34:03.735Z,2.80
2022-12-27T12:35:10.430Z,2.80
2022-12-27T12:36:00.427Z,2.80
2022-12-27T12:37:01.469Z,2.80
2022-12-27T12:38:03.435Z,2.80
2022-12-27T12:39:05.625Z,2.80
2022-12-27T12:40:01.470Z,2.80
2022-12-27T12:41:10.250Z,2.80
2022-12-27T12:42:10.380Z,2.80
2022-12-27T12:43:10.394Z,2.80
2022-12-27T12:44:01.448Z,2.80
2022-12-27T12:45:10.554Z,2.80
2022-12-27T12:46:05.761Z,2.80
2022-12-27T12:47:09.873Z,2.80
2022-12-27T12:48:10.382Z,2.80
2022-12-27T12:49:03.731Z,2.80
2022-12-27T12:50:00.443Z,2.80
2022-12-27T12:51:10.359Z,2.80
2022-12-27T12:52:00.432Z,2.80
2022-12-27T12:53:10.388Z,2.80
2022-12-27T12:54:10.373Z,2.80
2022-12-27T12:55:10.364Z,2.80
2022-12-27T12:56:10.380Z,2.80
2022-12-27T12:57:10.386Z,2.80
2022-12-27T12:58:06.916Z,3.10
2022-12-27T12:59:10.375Z,3.10
2022-12-27T13:00:05.184Z,3.10
2022-12-27T13:11:51.430Z,3.10
2022-12-27T13:12:04.504Z,3.10
2022-12-27T13:13:10.382Z,3.10
2022-12-27T13:14:10.360Z,3.10
2022-12-27T13:15:10.367Z,3.10
2022-12-27T13:16:10.397Z,3.10
2022-12-27T13:17:06.046Z,3.10
2022-12-27T13:18:00.655Z,3.10
2022-12-27T13:19:00.692Z,3.10
2022-12-27T13:20:10.426Z,3.10
2022-12-27T13:21:10.374Z,3.10
2022-12-27T13:22:10.383Z,3.10
2022-12-27T13:23:03.807Z,3.10
2022-12-27T13:24:05.693Z,3.10
2022-12-27T13:25:10.397Z,3.10
2022-12-27T13:26:05.927Z,3.10
2022-12-27T13:27:10.375Z,3.10
2022-12-27T13:28:08.791Z,3.10
2022-12-27T13:29:07.083Z,3.10
2022-12-27T13:30:10.363Z,3.10
2022-12-27T13:31:01.544Z,3.10